Wind From: 10-12-2017 19:04 Until: 11-12-2017 16:00 warning for: Wind Level: Orange info button

Power and phone distribution networks may be disrupted for relatively long periods., Roofs and chimneys can be damaged. , Tree branches may break. , Vehicles can be deported. , Traffic may be disrupted, particularly on secondary roads in forest areas. Limit your trips. , Limit your speed in highway driving, especially if you drive a vehicle or hitch sensitive to wind. , Do not go for walks in forests or along the coast., In town, be vigilant against possible falling objects., Do not work on roofs and do not touch any electrical line fallen on the ground., Store or secure sensitive objects to wind or likely to be damaged., Always install power generators outside buildings. 


Meteo18 Weather Cam more information Meteo18 Weather Cam


Thunder radar more information blitzortung!


Rain radar more information rain snow radar


Visit our other weather sites:

Template documentation
and downloads

And another site



Weather Underground History page Text

Daily Summary for February 3, 2017 Units:  Both    English   Metric
« Previous Day
Next Day »
Daily Weekly Monthly Yearly Custom
  High: Low: Average:
Temperature: 48.6 °F /  9.2 °C 39.2 °F /  4.0 °C 44.8 °F /  7.1 °C
Dew Point: 44.6 °F /  7.0 °C 37.8 °F /  3.2 °C 41.4 °F /  5.2 °C
Humidity: 96 % 76 % 88 %
Wind Speed: 27 mph /  43.4 km/h - 7.5 mph /  12.1 km/h
Wind Gust: 32 mph /  51.5 km/h - -
Wind:- - SSW
Pressure: 29.8 in /  1008.4 hPa 29.6 in /  1001.9 hPa -
Precipitation: 0.1 in /  2.5 mm    
Historical Graphs
 
 
Tabular Data for February 3, 2017
Time Temperature Dew Point Pressure Wind Wind Speed Wind Gust Humidity Rainfall Rate (Hourly)
00:02 46.2 °F /  7.9 °C 44.6 °F /  7.0 °C 29.7 in /  1007.3 hPa SSW 6 mph /  9.7 km/h 8 mph /  12.9 km/h 94 % 0.01 in /  0.3 mm
00:07 46.2 °F /  7.9 °C 44.6 °F /  7.0 °C 29.7 in /  1007.3 hPa SSW 7 mph /  11.3 km/h 9 mph /  14.5 km/h 94 % 0.01 in /  0.3 mm
00:12 46.2 °F /  7.9 °C 44.6 °F /  7.0 °C 29.7 in /  1007.3 hPa SW 8 mph /  12.9 km/h 9 mph /  14.5 km/h 94 % 0.01 in /  0.3 mm
00:17 46 °F /  7.8 °C 44.4 °F /  6.9 °C 29.8 in /  1007.7 hPa SSW 5 mph /  8.0 km/h 10 mph /  16.1 km/h 94 % 0.01 in /  0.3 mm
00:22 46 °F /  7.8 °C 44.4 °F /  6.9 °C 29.8 in /  1007.7 hPa SSW 8 mph /  12.9 km/h 10 mph /  16.1 km/h 94 % 0.01 in /  0.3 mm
00:27 46 °F /  7.8 °C 44.4 °F /  6.9 °C 29.8 in /  1007.7 hPa SSW 6 mph /  9.7 km/h 10 mph /  16.1 km/h 94 % 0.01 in /  0.3 mm
00:32 46 °F /  7.8 °C 44.4 °F /  6.9 °C 29.8 in /  1007.7 hPa SW 5 mph /  8.0 km/h 11 mph /  17.7 km/h 94 % 0.01 in /  0.3 mm
00:37 46 °F /  7.8 °C 44.4 °F /  6.9 °C 29.8 in /  1007.7 hPa SW 5 mph /  8.0 km/h 11 mph /  17.7 km/h 94 % 0.01 in /  0.3 mm
00:42 46 °F /  7.8 °C 44.4 °F /  6.9 °C 29.8 in /  1007.7 hPa SW 11 mph /  17.7 km/h 11 mph /  17.7 km/h 94 % 0.02 in /  0.5 mm
00:47 46 °F /  7.8 °C 44.4 °F /  6.9 °C 29.8 in /  1008.0 hPa SSW 5 mph /  8.0 km/h 11 mph /  17.7 km/h 94 % 0.01 in /  0.3 mm
00:52 46 °F /  7.8 °C 44.4 °F /  6.9 °C 29.8 in /  1008.0 hPa SW 7 mph /  11.3 km/h 11 mph /  17.7 km/h 94 % 0.01 in /  0.3 mm
00:57 46 °F /  7.8 °C 44.4 °F /  6.9 °C 29.8 in /  1008.0 hPa SW 8 mph /  12.9 km/h 11 mph /  17.7 km/h 94 % 0.01 in /  0.3 mm
01:02 46 °F /  7.8 °C 44.4 °F /  6.9 °C 29.8 in /  1008.0 hPa SSW 6 mph /  9.7 km/h 12 mph /  19.3 km/h 94 % 0.01 in /  0.3 mm
01:07 46 °F /  7.8 °C 44.4 °F /  6.9 °C 29.8 in /  1008.0 hPa SW 5 mph /  8.0 km/h 12 mph /  19.3 km/h 94 % 0.01 in /  0.3 mm
01:12 46 °F /  7.8 °C 44.4 °F /  6.9 °C 29.8 in /  1008.0 hPa SSW 8 mph /  12.9 km/h 12 mph /  19.3 km/h 94 % 0.01 in /  0.3 mm
01:17 46 °F /  7.8 °C 44.4 °F /  6.9 °C 29.8 in /  1008.0 hPa SSW 6 mph /  9.7 km/h 11 mph /  17.7 km/h 94 % 0.01 in /  0.3 mm
01:22 45.9 °F /  7.7 °C 44.2 °F /  6.8 °C 29.8 in /  1008.0 hPa SSW 6 mph /  9.7 km/h 11 mph /  17.7 km/h 94 % 0.01 in /  0.3 mm
01:27 45.9 °F /  7.7 °C 44.2 °F /  6.8 °C 29.8 in /  1008.0 hPa SSW 8 mph /  12.9 km/h 11 mph /  17.7 km/h 94 % 0.01 in /  0.3 mm
01:32 45.9 °F /  7.7 °C 44.2 °F /  6.8 °C 29.8 in /  1008.0 hPa SW 7 mph /  11.3 km/h 10 mph /  16.1 km/h 94 % 0.01 in /  0.3 mm
01:37 45.9 °F /  7.7 °C 44.2 °F /  6.8 °C 29.8 in /  1008.0 hPa SW 8 mph /  12.9 km/h 11 mph /  17.7 km/h 94 % 0.01 in /  0.3 mm
01:42 45.9 °F /  7.7 °C 44.2 °F /  6.8 °C 29.8 in /  1008.0 hPa SW 4 mph /  6.4 km/h 11 mph /  17.7 km/h 94 % 0 in /  0.0 mm
01:47 45.9 °F /  7.7 °C 44.2 °F /  6.8 °C 29.8 in /  1008.0 hPa South 7 mph /  11.3 km/h 11 mph /  17.7 km/h 94 % 0 in /  0.0 mm
01:52 45.9 °F /  7.7 °C 44.2 °F /  6.8 °C 29.8 in /  1008.0 hPa SSW 7 mph /  11.3 km/h 11 mph /  17.7 km/h 94 % 0 in /  0.0 mm
01:57 45.9 °F /  7.7 °C 44.2 °F /  6.8 °C 29.8 in /  1008.0 hPa SW 10 mph /  16.1 km/h 11 mph /  17.7 km/h 94 % 0 in /  0.0 mm
02:02 46 °F /  7.8 °C 44.4 °F /  6.9 °C 29.8 in /  1008.0 hPa SW 11 mph /  17.7 km/h 13 mph /  20.9 km/h 94 % 0 in /  0.0 mm
02:07 46 °F /  7.8 °C 44.4 °F /  6.9 °C 29.8 in /  1008.4 hPa SSW 7 mph /  11.3 km/h 13 mph /  20.9 km/h 94 % 0 in /  0.0 mm
02:12 46 °F /  7.8 °C 44.1 °F /  6.7 °C 29.8 in /  1008.0 hPa SW 11 mph /  17.7 km/h 13 mph /  20.9 km/h 93 % 0 in /  0.0 mm
02:17 46 °F /  7.8 °C 44.1 °F /  6.7 °C 29.8 in /  1008.0 hPa SW 7 mph /  11.3 km/h 13 mph /  20.9 km/h 93 % 0 in /  0.0 mm
02:22 46.2 °F /  7.9 °C 44.2 °F /  6.8 °C 29.8 in /  1008.0 hPa SW 9 mph /  14.5 km/h 14 mph /  22.5 km/h 93 % 0 in /  0.0 mm
02:27 46.2 °F /  7.9 °C 44.2 °F /  6.8 °C 29.8 in /  1008.0 hPa SSW 6 mph /  9.7 km/h 14 mph /  22.5 km/h 93 % 0 in /  0.0 mm
02:32 46 °F /  7.8 °C 44.1 °F /  6.7 °C 29.8 in /  1008.0 hPa SSW 8 mph /  12.9 km/h 15 mph /  24.1 km/h 93 % 0 in /  0.0 mm
02:37 46 °F /  7.8 °C 44.1 °F /  6.7 °C 29.8 in /  1008.0 hPa SSW 6 mph /  9.7 km/h 15 mph /  24.1 km/h 93 % 0 in /  0.0 mm
02:42 46 °F /  7.8 °C 44.1 °F /  6.7 °C 29.8 in /  1008.0 hPa SSW 6 mph /  9.7 km/h 13 mph /  20.9 km/h 93 % 0 in /  0.0 mm
02:47 46 °F /  7.8 °C 44.1 °F /  6.7 °C 29.8 in /  1007.7 hPa SSW 6 mph /  9.7 km/h 12 mph /  19.3 km/h 93 % 0 in /  0.0 mm
02:52 46 °F /  7.8 °C 44.1 °F /  6.7 °C 29.8 in /  1008.0 hPa SW 7 mph /  11.3 km/h 12 mph /  19.3 km/h 93 % 0 in /  0.0 mm
03:02 46 °F /  7.8 °C 43.9 °F /  6.6 °C 29.8 in /  1007.7 hPa SSW 6 mph /  9.7 km/h 12 mph /  19.3 km/h 92 % 0 in /  0.0 mm
03:07 46.2 °F /  7.9 °C 44.1 °F /  6.7 °C 29.8 in /  1007.7 hPa SW 6 mph /  9.7 km/h 12 mph /  19.3 km/h 92 % 0 in /  0.0 mm
03:12 46.2 °F /  7.9 °C 43.7 °F /  6.5 °C 29.8 in /  1007.7 hPa SW 10 mph /  16.1 km/h 13 mph /  20.9 km/h 91 % 0 in /  0.0 mm
03:17 46.4 °F /  8.0 °C 43.9 °F /  6.6 °C 29.8 in /  1007.7 hPa SW 5 mph /  8.0 km/h 13 mph /  20.9 km/h 91 % 0 in /  0.0 mm
03:22 46.2 °F /  7.9 °C 43.7 °F /  6.5 °C 29.8 in /  1007.7 hPa SW 7 mph /  11.3 km/h 13 mph /  20.9 km/h 91 % 0 in /  0.0 mm
03:27 46.4 °F /  8.0 °C 43.9 °F /  6.6 °C 29.8 in /  1007.7 hPa SW 10 mph /  16.1 km/h 14 mph /  22.5 km/h 91 % 0 in /  0.0 mm
03:32 46.4 °F /  8.0 °C 43.9 °F /  6.6 °C 29.8 in /  1007.7 hPa South 1 mph /  1.6 km/h 14 mph /  22.5 km/h 91 % 0 in /  0.0 mm
03:37 46.4 °F /  8.0 °C 43.9 °F /  6.6 °C 29.8 in /  1007.7 hPa SW 6 mph /  9.7 km/h 14 mph /  22.5 km/h 91 % 0 in /  0.0 mm
03:42 46.2 °F /  7.9 °C 44.1 °F /  6.7 °C 29.8 in /  1008.0 hPa SW 5 mph /  8.0 km/h 12 mph /  19.3 km/h 92 % 0 in /  0.0 mm
03:47 46.2 °F /  7.9 °C 44.1 °F /  6.7 °C 29.8 in /  1008.0 hPa SSW 8 mph /  12.9 km/h 12 mph /  19.3 km/h 92 % 0 in /  0.0 mm
03:52 46 °F /  7.8 °C 43.9 °F /  6.6 °C 29.8 in /  1008.0 hPa SW 9 mph /  14.5 km/h 12 mph /  19.3 km/h 92 % 0 in /  0.0 mm
03:57 45.9 °F /  7.7 °C 43.9 °F /  6.6 °C 29.8 in /  1007.7 hPa SSW 5 mph /  8.0 km/h 12 mph /  19.3 km/h 93 % 0 in /  0.0 mm
04:02 45.9 °F /  7.7 °C 43.7 °F /  6.5 °C 29.8 in /  1008.0 hPa SW 7 mph /  11.3 km/h 12 mph /  19.3 km/h 92 % 0 in /  0.0 mm
04:07 45.9 °F /  7.7 °C 43.7 °F /  6.5 °C 29.8 in /  1007.7 hPa SW 7 mph /  11.3 km/h 12 mph /  19.3 km/h 92 % 0 in /  0.0 mm
04:12 45.9 °F /  7.7 °C 43.7 °F /  6.5 °C 29.8 in /  1008.0 hPa SW 5 mph /  8.0 km/h 12 mph /  19.3 km/h 92 % 0 in /  0.0 mm
04:17 45.7 °F /  7.6 °C 43.5 °F /  6.4 °C 29.8 in /  1008.0 hPa SSW 5 mph /  8.0 km/h 12 mph /  19.3 km/h 92 % 0 in /  0.0 mm
04:22 45.9 °F /  7.7 °C 43.7 °F /  6.5 °C 29.8 in /  1008.0 hPa SSW 10 mph /  16.1 km/h 12 mph /  19.3 km/h 92 % 0 in /  0.0 mm
04:27 46 °F /  7.8 °C 43.5 °F /  6.4 °C 29.8 in /  1008.0 hPa SSW 10 mph /  16.1 km/h 13 mph /  20.9 km/h 91 % 0 in /  0.0 mm
04:32 46 °F /  7.8 °C 43.5 °F /  6.4 °C 29.8 in /  1008.0 hPa SW 11 mph /  17.7 km/h 13 mph /  20.9 km/h 91 % 0 in /  0.0 mm
04:37 46 °F /  7.8 °C 43.3 °F /  6.3 °C 29.8 in /  1008.0 hPa SSW 3 mph /  4.8 km/h 14 mph /  22.5 km/h 90 % 0 in /  0.0 mm
04:42 46 °F /  7.8 °C 43.3 °F /  6.3 °C 29.8 in /  1008.0 hPa SW 11 mph /  17.7 km/h 14 mph /  22.5 km/h 90 % 0 in /  0.0 mm
04:47 46 °F /  7.8 °C 43.3 °F /  6.3 °C 29.8 in /  1008.0 hPa SW 12 mph /  19.3 km/h 15 mph /  24.1 km/h 90 % 0 in /  0.0 mm
04:52 45.9 °F /  7.7 °C 43.2 °F /  6.2 °C 29.8 in /  1008.0 hPa SW 10 mph /  16.1 km/h 15 mph /  24.1 km/h 90 % 0 in /  0.0 mm
04:57 45.7 °F /  7.6 °C 43 °F /  6.1 °C 29.8 in /  1008.4 hPa SW 9 mph /  14.5 km/h 15 mph /  24.1 km/h 90 % 0 in /  0.0 mm
05:02 45.5 °F /  7.5 °C 42.8 °F /  6.0 °C 29.8 in /  1008.4 hPa SW 3 mph /  4.8 km/h 13 mph /  20.9 km/h 90 % 0 in /  0.0 mm
05:12 45.1 °F /  7.3 °C 42.6 °F /  5.9 °C 29.8 in /  1008.4 hPa SW 8 mph /  12.9 km/h 13 mph /  20.9 km/h 91 % 0 in /  0.0 mm
05:17 45.1 °F /  7.3 °C 42.4 °F /  5.8 °C 29.8 in /  1008.4 hPa SW 4 mph /  6.4 km/h 12 mph /  19.3 km/h 90 % 0 in /  0.0 mm
05:22 45.1 °F /  7.3 °C 42.4 °F /  5.8 °C 29.8 in /  1008.0 hPa SW 6 mph /  9.7 km/h 12 mph /  19.3 km/h 90 % 0 in /  0.0 mm
05:27 45 °F /  7.2 °C 42.3 °F /  5.7 °C 29.8 in /  1008.0 hPa SSW 6 mph /  9.7 km/h 12 mph /  19.3 km/h 90 % 0 in /  0.0 mm
05:32 44.4 °F /  6.9 °C 41.9 °F /  5.5 °C 29.8 in /  1008.0 hPa SSW 4 mph /  6.4 km/h 11 mph /  17.7 km/h 91 % 0 in /  0.0 mm
05:37 44.1 °F /  6.7 °C 41.5 °F /  5.3 °C 29.8 in /  1008.4 hPa SSW 3 mph /  4.8 km/h 11 mph /  17.7 km/h 91 % 0 in /  0.0 mm
05:42 43.7 °F /  6.5 °C 41.2 °F /  5.1 °C 29.8 in /  1008.4 hPa SSW 4 mph /  6.4 km/h 11 mph /  17.7 km/h 91 % 0 in /  0.0 mm
05:47 43.3 °F /  6.3 °C 41.2 °F /  5.1 °C 29.8 in /  1008.4 hPa SSW 7 mph /  11.3 km/h 9 mph /  14.5 km/h 92 % 0 in /  0.0 mm
05:52 43.3 °F /  6.3 °C 41.2 °F /  5.1 °C 29.8 in /  1008.4 hPa SSW 6 mph /  9.7 km/h 9 mph /  14.5 km/h 92 % 0 in /  0.0 mm
05:57 43.2 °F /  6.2 °C 41 °F /  5.0 °C 29.8 in /  1008.4 hPa SW 4 mph /  6.4 km/h 8 mph /  12.9 km/h 92 % 0 in /  0.0 mm
06:02 43.2 °F /  6.2 °C 41.4 °F /  5.2 °C 29.8 in /  1008.4 hPa SSW 6 mph /  9.7 km/h 8 mph /  12.9 km/h 93 % 0 in /  0.0 mm
06:07 43.2 °F /  6.2 °C 41.4 °F /  5.2 °C 29.8 in /  1008.4 hPa SW 7 mph /  11.3 km/h 9 mph /  14.5 km/h 93 % 0 in /  0.0 mm
06:12 43.3 °F /  6.3 °C 41.5 °F /  5.3 °C 29.8 in /  1008.4 hPa SSW 5 mph /  8.0 km/h 9 mph /  14.5 km/h 93 % 0 in /  0.0 mm
06:17 43.3 °F /  6.3 °C 41.5 °F /  5.3 °C 29.8 in /  1008.4 hPa SW 4 mph /  6.4 km/h 10 mph /  16.1 km/h 93 % 0 in /  0.0 mm
06:22 43.2 °F /  6.2 °C 41.4 °F /  5.2 °C 29.8 in /  1008.4 hPa SSW 4 mph /  6.4 km/h 10 mph /  16.1 km/h 93 % 0 in /  0.0 mm
06:27 43.2 °F /  6.2 °C 41.4 °F /  5.2 °C 29.8 in /  1008.4 hPa SSW 2 mph /  3.2 km/h 8 mph /  12.9 km/h 93 % 0 in /  0.0 mm
06:32 43 °F /  6.1 °C 41.2 °F /  5.1 °C 29.8 in /  1008.4 hPa SSW 3 mph /  4.8 km/h 7 mph /  11.3 km/h 93 % 0 in /  0.0 mm
06:37 42.8 °F /  6.0 °C 41 °F /  5.0 °C 29.8 in /  1008.4 hPa SSW 3 mph /  4.8 km/h 6 mph /  9.7 km/h 93 % 0 in /  0.0 mm
06:42 42.6 °F /  5.9 °C 40.8 °F /  4.9 °C 29.8 in /  1008.4 hPa SW 2 mph /  3.2 km/h 6 mph /  9.7 km/h 93 % 0 in /  0.0 mm
06:52 42.3 °F /  5.7 °C 40.5 °F /  4.7 °C 29.8 in /  1008.4 hPa SSW 3 mph /  4.8 km/h 6 mph /  9.7 km/h 93 % 0 in /  0.0 mm
06:57 42.1 °F /  5.6 °C 40.3 °F /  4.6 °C 29.8 in /  1008.4 hPa South 1 mph /  1.6 km/h 6 mph /  9.7 km/h 93 % 0 in /  0.0 mm
07:02 41.7 °F /  5.4 °C 39.9 °F /  4.4 °C 29.8 in /  1008.0 hPa SSW 1 mph /  1.6 km/h 4 mph /  6.4 km/h 93 % 0 in /  0.0 mm
07:07 41.5 °F /  5.3 °C 39.7 °F /  4.3 °C 29.8 in /  1008.0 hPa South 2 mph /  3.2 km/h 4 mph /  6.4 km/h 93 % 0 in /  0.0 mm
07:12 41.4 °F /  5.2 °C 39.6 °F /  4.2 °C 29.8 in /  1008.0 hPa South 1 mph /  1.6 km/h 4 mph /  6.4 km/h 93 % 0 in /  0.0 mm
07:17 41.2 °F /  5.1 °C 39.4 °F /  4.1 °C 29.8 in /  1008.0 hPa Calm   4 mph /  6.4 km/h 93 % 0 in /  0.0 mm
07:22 40.8 °F /  4.9 °C 39 °F /  3.9 °C 29.8 in /  1008.0 hPa Calm   4 mph /  6.4 km/h 93 % 0 in /  0.0 mm
07:27 40.6 °F /  4.8 °C 39 °F /  3.9 °C 29.8 in /  1007.7 hPa SSE 1 mph /  1.6 km/h 2 mph /  3.2 km/h 94 % 0 in /  0.0 mm
07:32 40.6 °F /  4.8 °C 39 °F /  3.9 °C 29.8 in /  1007.7 hPa Calm   4 mph /  6.4 km/h 94 % 0 in /  0.0 mm
07:37 40.5 °F /  4.7 °C 38.8 °F /  3.8 °C 29.8 in /  1007.7 hPa Calm   4 mph /  6.4 km/h 94 % 0 in /  0.0 mm
07:42 40.3 °F /  4.6 °C 38.7 °F /  3.7 °C 29.8 in /  1007.7 hPa Calm   3 mph /  4.8 km/h 94 % 0 in /  0.0 mm
07:47 39.9 °F /  4.4 °C 38.3 °F /  3.5 °C 29.8 in /  1007.7 hPa Calm   1 mph /  1.6 km/h 94 % 0 in /  0.0 mm
07:52 39.7 °F /  4.3 °C 38.1 °F /  3.4 °C 29.8 in /  1007.7 hPa Calm   1 mph /  1.6 km/h 94 % 0 in /  0.0 mm
07:57 39.4 °F /  4.1 °C 37.8 °F /  3.2 °C 29.8 in /  1007.7 hPa SSE 1 mph /  1.6 km/h 1 mph /  1.6 km/h 94 % 0 in /  0.0 mm
08:02 39.4 °F /  4.1 °C 38.1 °F /  3.4 °C 29.8 in /  1007.7 hPa SE 2 mph /  3.2 km/h 2 mph /  3.2 km/h 95 % 0 in /  0.0 mm
08:12 39.4 °F /  4.1 °C 38.1 °F /  3.4 °C 29.8 in /  1007.7 hPa Calm   4 mph /  6.4 km/h 95 % 0 in /  0.0 mm
08:17 39.4 °F /  4.1 °C 38.1 °F /  3.4 °C 29.8 in /  1007.7 hPa SE 2 mph /  3.2 km/h 4 mph /  6.4 km/h 95 % 0 in /  0.0 mm
08:22 39.2 °F /  4.0 °C 37.9 °F /  3.3 °C 29.8 in /  1007.7 hPa SE 1 mph /  1.6 km/h 3 mph /  4.8 km/h 95 % 0 in /  0.0 mm
08:27 39.2 °F /  4.0 °C 37.9 °F /  3.3 °C 29.8 in /  1007.7 hPa Calm   3 mph /  4.8 km/h 95 % 0 in /  0.0 mm
08:32 39.4 °F /  4.1 °C 38.3 °F /  3.5 °C 29.7 in /  1007.3 hPa East 2 mph /  3.2 km/h 5 mph /  8.0 km/h 96 % 0 in /  0.0 mm
08:37 39.4 °F /  4.1 °C 38.3 °F /  3.5 °C 29.7 in /  1007.3 hPa SE 1 mph /  1.6 km/h 5 mph /  8.0 km/h 96 % 0 in /  0.0 mm
08:42 39.4 °F /  4.1 °C 38.1 °F /  3.4 °C 29.7 in /  1007.3 hPa Calm   5 mph /  8.0 km/h 95 % 0 in /  0.0 mm
08:47 39.6 °F /  4.2 °C 38.3 °F /  3.5 °C 29.7 in /  1007.3 hPa ESE 2 mph /  3.2 km/h 5 mph /  8.0 km/h 95 % 0 in /  0.0 mm
08:52 39.7 °F /  4.3 °C 38.5 °F /  3.6 °C 29.7 in /  1007.3 hPa SE 1 mph /  1.6 km/h 5 mph /  8.0 km/h 95 % 0 in /  0.0 mm
09:02 40.5 °F /  4.7 °C 39.2 °F /  4.0 °C 29.7 in /  1007.0 hPa SE 1 mph /  1.6 km/h 5 mph /  8.0 km/h 95 % 0 in /  0.0 mm
09:07 40.8 °F /  4.9 °C 39.6 °F /  4.2 °C 29.7 in /  1007.0 hPa South 3 mph /  4.8 km/h 5 mph /  8.0 km/h 95 % 0 in /  0.0 mm
09:12 41.4 °F /  5.2 °C 39.7 °F /  4.3 °C 29.7 in /  1007.0 hPa SE 4 mph /  6.4 km/h 5 mph /  8.0 km/h 94 % 0 in /  0.0 mm
09:17 41.5 °F /  5.3 °C 39.7 °F /  4.3 °C 29.7 in /  1007.0 hPa SSE 2 mph /  3.2 km/h 8 mph /  12.9 km/h 93 % 0 in /  0.0 mm
09:22 41.9 °F /  5.5 °C 39.7 °F /  4.3 °C 29.7 in /  1007.0 hPa South 3 mph /  4.8 km/h 8 mph /  12.9 km/h 92 % 0 in /  0.0 mm
09:32 42.6 °F /  5.9 °C 40.1 °F /  4.5 °C 29.7 in /  1007.0 hPa SE 2 mph /  3.2 km/h 12 mph /  19.3 km/h 91 % 0 in /  0.0 mm
09:37 43 °F /  6.1 °C 40.3 °F /  4.6 °C 29.7 in /  1007.0 hPa SSE 4 mph /  6.4 km/h 12 mph /  19.3 km/h 90 % 0 in /  0.0 mm
09:42 43 °F /  6.1 °C 40.3 °F /  4.6 °C 29.7 in /  1006.7 hPa SSE 7 mph /  11.3 km/h 10 mph /  16.1 km/h 90 % 0 in /  0.0 mm
09:47 43.3 °F /  6.3 °C 40.3 °F /  4.6 °C 29.7 in /  1006.7 hPa SW 6 mph /  9.7 km/h 11 mph /  17.7 km/h 89 % 0 in /  0.0 mm
09:52 43.5 °F /  6.4 °C 40.5 °F /  4.7 °C 29.7 in /  1007.0 hPa SSE 6 mph /  9.7 km/h 11 mph /  17.7 km/h 89 % 0 in /  0.0 mm
09:57 43.9 °F /  6.6 °C 40.6 °F /  4.8 °C 29.7 in /  1007.0 hPa South 3 mph /  4.8 km/h 11 mph /  17.7 km/h 88 % 0 in /  0.0 mm
10:02 43.9 °F /  6.6 °C 40.6 °F /  4.8 °C 29.7 in /  1007.0 hPa South 9 mph /  14.5 km/h 10 mph /  16.1 km/h 88 % 0 in /  0.0 mm
10:07 44.1 °F /  6.7 °C 40.8 °F /  4.9 °C 29.7 in /  1007.0 hPa SSE 6 mph /  9.7 km/h 11 mph /  17.7 km/h 88 % 0 in /  0.0 mm
10:12 44.2 °F /  6.8 °C 41 °F /  5.0 °C 29.7 in /  1007.0 hPa South 9 mph /  14.5 km/h 11 mph /  17.7 km/h 88 % 0 in /  0.0 mm
10:17 44.4 °F /  6.9 °C 40.8 °F /  4.9 °C 29.7 in /  1007.0 hPa SSE 6 mph /  9.7 km/h 13 mph /  20.9 km/h 87 % 0 in /  0.0 mm
10:22 44.8 °F /  7.1 °C 41.2 °F /  5.1 °C 29.7 in /  1007.0 hPa ESE 9 mph /  14.5 km/h 13 mph /  20.9 km/h 87 % 0 in /  0.0 mm
10:27 45.1 °F /  7.3 °C 41.2 °F /  5.1 °C 29.7 in /  1006.7 hPa SSE 9 mph /  14.5 km/h 13 mph /  20.9 km/h 86 % 0 in /  0.0 mm
10:32 45.5 °F /  7.5 °C 41.5 °F /  5.3 °C 29.7 in /  1006.7 hPa ESE 6 mph /  9.7 km/h 11 mph /  17.7 km/h 86 % 0 in /  0.0 mm
10:37 45.9 °F /  7.7 °C 41.4 °F /  5.2 °C 29.7 in /  1006.7 hPa SSE 6 mph /  9.7 km/h 11 mph /  17.7 km/h 84 % 0 in /  0.0 mm
10:42 46.2 °F /  7.9 °C 41.9 °F /  5.5 °C 29.7 in /  1006.7 hPa SE 4 mph /  6.4 km/h 12 mph /  19.3 km/h 85 % 0 in /  0.0 mm
10:52 46.2 °F /  7.9 °C 40.6 °F /  4.8 °C 29.7 in /  1006.3 hPa South 7 mph /  11.3 km/h 11 mph /  17.7 km/h 81 % 0 in /  0.0 mm
10:57 46.2 °F /  7.9 °C 41 °F /  5.0 °C 29.7 in /  1006.3 hPa ESE 6 mph /  9.7 km/h 14 mph /  22.5 km/h 82 % 0 in /  0.0 mm
11:02 46.6 °F /  8.1 °C 41.4 °F /  5.2 °C 29.7 in /  1006.3 hPa ESE 4 mph /  6.4 km/h 14 mph /  22.5 km/h 82 % 0 in /  0.0 mm
11:07 46.8 °F /  8.2 °C 41.2 °F /  5.1 °C 29.7 in /  1006.0 hPa South 3 mph /  4.8 km/h 12 mph /  19.3 km/h 81 % 0 in /  0.0 mm
11:12 47.3 °F /  8.5 °C 41.7 °F /  5.4 °C 29.7 in /  1006.0 hPa SSE 6 mph /  9.7 km/h 13 mph /  20.9 km/h 81 % 0 in /  0.0 mm
11:17 47.3 °F /  8.5 °C 41.4 °F /  5.2 °C 29.7 in /  1006.0 hPa SSE 6 mph /  9.7 km/h 13 mph /  20.9 km/h 80 % 0 in /  0.0 mm
11:22 47.1 °F /  8.4 °C 40.6 °F /  4.8 °C 29.7 in /  1006.0 hPa SSW 7 mph /  11.3 km/h 13 mph /  20.9 km/h 78 % 0 in /  0.0 mm
11:27 47.1 °F /  8.4 °C 41 °F /  5.0 °C 29.7 in /  1006.0 hPa ESE 8 mph /  12.9 km/h 13 mph /  20.9 km/h 79 % 0 in /  0.0 mm
11:32 47.1 °F /  8.4 °C 41 °F /  5.0 °C 29.7 in /  1006.0 hPa ESE 4 mph /  6.4 km/h 13 mph /  20.9 km/h 79 % 0 in /  0.0 mm
11:37 47.7 °F /  8.7 °C 41.5 °F /  5.3 °C 29.7 in /  1005.6 hPa SSE 8 mph /  12.9 km/h 13 mph /  20.9 km/h 79 % 0 in /  0.0 mm
11:42 47.7 °F /  8.7 °C 41.5 °F /  5.3 °C 29.7 in /  1005.6 hPa SSE 3 mph /  4.8 km/h 14 mph /  22.5 km/h 79 % 0 in /  0.0 mm
11:47 47.7 °F /  8.7 °C 40.8 °F /  4.9 °C 29.7 in /  1005.3 hPa South 7 mph /  11.3 km/h 14 mph /  22.5 km/h 77 % 0 in /  0.0 mm
11:52 47.3 °F /  8.5 °C 40.1 °F /  4.5 °C 29.7 in /  1005.0 hPa SE 4 mph /  6.4 km/h 14 mph /  22.5 km/h 76 % 0 in /  0.0 mm
11:57 47.1 °F /  8.4 °C 40.3 °F /  4.6 °C 29.7 in /  1005.0 hPa SE 4 mph /  6.4 km/h 14 mph /  22.5 km/h 77 % 0 in /  0.0 mm
12:02 46.9 °F /  8.3 °C 40.1 °F /  4.5 °C 29.7 in /  1005.0 hPa SSE 1 mph /  1.6 km/h 14 mph /  22.5 km/h 77 % 0 in /  0.0 mm
12:07 46.9 °F /  8.3 °C 40.5 °F /  4.7 °C 29.7 in /  1005.0 hPa South 5 mph /  8.0 km/h 12 mph /  19.3 km/h 78 % 0 in /  0.0 mm
12:12 47.1 °F /  8.4 °C 40.6 °F /  4.8 °C 29.7 in /  1005.0 hPa SW 2 mph /  3.2 km/h 11 mph /  17.7 km/h 78 % 0 in /  0.0 mm
12:17 47.1 °F /  8.4 °C 40.6 °F /  4.8 °C 29.7 in /  1005.0 hPa SE 4 mph /  6.4 km/h 11 mph /  17.7 km/h 78 % 0 in /  0.0 mm
12:22 47.1 °F /  8.4 °C 40.6 °F /  4.8 °C 29.7 in /  1005.0 hPa SSW 2 mph /  3.2 km/h 11 mph /  17.7 km/h 78 % 0 in /  0.0 mm
12:27 47.3 °F /  8.5 °C 40.5 °F /  4.7 °C 29.7 in /  1005.0 hPa SSW 3 mph /  4.8 km/h 8 mph /  12.9 km/h 77 % 0 in /  0.0 mm
12:32 47.5 °F /  8.6 °C 41 °F /  5.0 °C 29.7 in /  1005.0 hPa SSE 3 mph /  4.8 km/h 11 mph /  17.7 km/h 78 % 0 in /  0.0 mm
12:42 47.7 °F /  8.7 °C 41.5 °F /  5.3 °C 29.7 in /  1005.0 hPa South 6 mph /  9.7 km/h 10 mph /  16.1 km/h 79 % 0 in /  0.0 mm
12:47 47.7 °F /  8.7 °C 41.5 °F /  5.3 °C 29.7 in /  1005.0 hPa South 4 mph /  6.4 km/h 10 mph /  16.1 km/h 79 % 0 in /  0.0 mm
12:57 47.8 °F /  8.8 °C 41.4 °F /  5.2 °C 29.7 in /  1005.0 hPa SSW 8 mph /  12.9 km/h 12 mph /  19.3 km/h 78 % 0 in /  0.0 mm
13:02 47.8 °F /  8.8 °C 40.6 °F /  4.8 °C 29.7 in /  1005.0 hPa SSW 12 mph /  19.3 km/h 15 mph /  24.1 km/h 76 % 0 in /  0.0 mm
13:07 47.8 °F /  8.8 °C 40.6 °F /  4.8 °C 29.7 in /  1005.0 hPa SSW 14 mph /  22.5 km/h 21 mph /  33.8 km/h 76 % 0 in /  0.0 mm
13:12 47.5 °F /  8.6 °C 40.3 °F /  4.6 °C 29.7 in /  1004.6 hPa SW 22 mph /  35.4 km/h 22 mph /  35.4 km/h 76 % 0 in /  0.0 mm
13:17 47.1 °F /  8.4 °C 41 °F /  5.0 °C 29.7 in /  1004.6 hPa South 12 mph /  19.3 km/h 22 mph /  35.4 km/h 79 % 0 in /  0.0 mm
13:22 46.8 °F /  8.2 °C 39.9 °F /  4.4 °C 29.7 in /  1004.6 hPa SW 27 mph /  43.4 km/h 27 mph /  43.4 km/h 77 % 0 in /  0.0 mm
13:27 46 °F /  7.8 °C 39.9 °F /  4.4 °C 29.7 in /  1004.6 hPa SSW 18 mph /  29.0 km/h 31 mph /  49.9 km/h 79 % 0.02 in /  0.5 mm
13:32 45.5 °F /  7.5 °C 40.3 °F /  4.6 °C 29.7 in /  1004.3 hPa SSW 19 mph /  30.6 km/h 31 mph /  49.9 km/h 82 % 0.02 in /  0.5 mm
13:37 45 °F /  7.2 °C 39.7 °F /  4.3 °C 29.7 in /  1004.3 hPa SSW 22 mph /  35.4 km/h 31 mph /  49.9 km/h 82 % 0.03 in /  0.8 mm
13:42 44.8 °F /  7.1 °C 39.9 °F /  4.4 °C 29.7 in /  1004.3 hPa SSW 6 mph /  9.7 km/h 29 mph /  46.7 km/h 83 % 0.05 in /  1.3 mm
13:47 44.4 °F /  6.9 °C 40.3 °F /  4.6 °C 29.6 in /  1003.9 hPa SSE 6 mph /  9.7 km/h 25 mph /  40.2 km/h 85 % 0.05 in /  1.3 mm
13:52 44.8 °F /  7.1 °C 40.3 °F /  4.6 °C 29.6 in /  1003.9 hPa South 10 mph /  16.1 km/h 25 mph /  40.2 km/h 84 % 0.06 in /  1.5 mm
13:57 45 °F /  7.2 °C 40.6 °F /  4.8 °C 29.6 in /  1003.6 hPa SSE 4 mph /  6.4 km/h 20 mph /  32.2 km/h 85 % 0.06 in /  1.5 mm
14:02 45 °F /  7.2 °C 40.5 °F /  4.7 °C 29.6 in /  1003.6 hPa SSE 5 mph /  8.0 km/h 20 mph /  32.2 km/h 84 % 0.06 in /  1.5 mm
14:07 45 °F /  7.2 °C 40.5 °F /  4.7 °C 29.6 in /  1003.6 hPa SSW 9 mph /  14.5 km/h 19 mph /  30.6 km/h 84 % 0.06 in /  1.5 mm
14:12 44.8 °F /  7.1 °C 40.5 °F /  4.7 °C 29.6 in /  1003.3 hPa SSE 6 mph /  9.7 km/h 23 mph /  37.0 km/h 85 % 0.06 in /  1.5 mm
14:17 44.8 °F /  7.1 °C 40.8 °F /  4.9 °C 29.6 in /  1003.6 hPa SSE 7 mph /  11.3 km/h 23 mph /  37.0 km/h 86 % 0.06 in /  1.5 mm
14:22 44.4 °F /  6.9 °C 40.8 °F /  4.9 °C 29.6 in /  1003.3 hPa SSE 9 mph /  14.5 km/h 23 mph /  37.0 km/h 87 % 0.05 in /  1.3 mm
14:32 44.2 °F /  6.8 °C 41 °F /  5.0 °C 29.6 in /  1002.9 hPa ESE 5 mph /  8.0 km/h 16 mph /  25.7 km/h 88 % 0.05 in /  1.3 mm
14:37 44.4 °F /  6.9 °C 41.2 °F /  5.1 °C 29.6 in /  1002.6 hPa SSE 3 mph /  4.8 km/h 13 mph /  20.9 km/h 88 % 0.03 in /  0.8 mm
14:42 44.4 °F /  6.9 °C 41.2 °F /  5.1 °C 29.6 in /  1002.6 hPa SE 3 mph /  4.8 km/h 12 mph /  19.3 km/h 88 % 0.02 in /  0.5 mm
14:47 44.2 °F /  6.8 °C 41 °F /  5.0 °C 29.6 in /  1002.6 hPa SSE 8 mph /  12.9 km/h 12 mph /  19.3 km/h 88 % 0.02 in /  0.5 mm
14:52 44.4 °F /  6.9 °C 41.2 °F /  5.1 °C 29.6 in /  1002.6 hPa SE 3 mph /  4.8 km/h 12 mph /  19.3 km/h 88 % 0.02 in /  0.5 mm
14:57 44.4 °F /  6.9 °C 41.2 °F /  5.1 °C 29.6 in /  1002.3 hPa ESE 6 mph /  9.7 km/h 11 mph /  17.7 km/h 88 % 0.02 in /  0.5 mm
15:02 44.4 °F /  6.9 °C 41.2 °F /  5.1 °C 29.6 in /  1002.3 hPa ESE 6 mph /  9.7 km/h 11 mph /  17.7 km/h 88 % 0.02 in /  0.5 mm
15:07 44.4 °F /  6.9 °C 41.4 °F /  5.2 °C 29.6 in /  1002.3 hPa SE 4 mph /  6.4 km/h 11 mph /  17.7 km/h 89 % 0.02 in /  0.5 mm
15:12 44.4 °F /  6.9 °C 41.2 °F /  5.1 °C 29.6 in /  1002.3 hPa SSW 5 mph /  8.0 km/h 12 mph /  19.3 km/h 88 % 0.02 in /  0.5 mm
15:17 44.6 °F /  7.0 °C 41.2 °F /  5.1 °C 29.6 in /  1002.3 hPa SE 4 mph /  6.4 km/h 12 mph /  19.3 km/h 88 % 0.02 in /  0.5 mm
15:22 44.8 °F /  7.1 °C 41.4 °F /  5.2 °C 29.6 in /  1002.3 hPa South 8 mph /  12.9 km/h 11 mph /  17.7 km/h 88 % 0.02 in /  0.5 mm
15:27 45 °F /  7.2 °C 41.4 °F /  5.2 °C 29.6 in /  1002.3 hPa SSW 4 mph /  6.4 km/h 16 mph /  25.7 km/h 87 % 0.02 in /  0.5 mm
15:32 45 °F /  7.2 °C 41.4 °F /  5.2 °C 29.6 in /  1002.3 hPa South 7 mph /  11.3 km/h 16 mph /  25.7 km/h 87 % 0.01 in /  0.3 mm
15:37 45.1 °F /  7.3 °C 41.2 °F /  5.1 °C 29.6 in /  1002.3 hPa South 5 mph /  8.0 km/h 15 mph /  24.1 km/h 86 % 0.01 in /  0.3 mm
15:42 45.3 °F /  7.4 °C 41.4 °F /  5.2 °C 29.6 in /  1002.3 hPa SSE 4 mph /  6.4 km/h 18 mph /  29.0 km/h 86 % 0.01 in /  0.3 mm
15:47 45.3 °F /  7.4 °C 41.4 °F /  5.2 °C 29.6 in /  1002.3 hPa SSE 4 mph /  6.4 km/h 18 mph /  29.0 km/h 86 % 0.01 in /  0.3 mm
15:52 45.5 °F /  7.5 °C 41.5 °F /  5.3 °C 29.6 in /  1002.3 hPa SW 7 mph /  11.3 km/h 18 mph /  29.0 km/h 86 % 0.01 in /  0.3 mm
16:02 46.6 °F /  8.1 °C 42.1 °F /  5.6 °C 29.6 in /  1002.3 hPa SSE 10 mph /  16.1 km/h 20 mph /  32.2 km/h 84 % 0.01 in /  0.3 mm
16:07 46.9 °F /  8.3 °C 42.1 °F /  5.6 °C 29.6 in /  1002.3 hPa SSE 10 mph /  16.1 km/h 22 mph /  35.4 km/h 83 % 0.01 in /  0.3 mm
16:12 47.1 °F /  8.4 °C 42.3 °F /  5.7 °C 29.6 in /  1002.3 hPa SW 16 mph /  25.7 km/h 22 mph /  35.4 km/h 83 % 0 in /  0.0 mm
16:17 47.3 °F /  8.5 °C 42.4 °F /  5.8 °C 29.6 in /  1001.9 hPa SSW 8 mph /  12.9 km/h 20 mph /  32.2 km/h 83 % 0 in /  0.0 mm
16:22 47.3 °F /  8.5 °C 42.1 °F /  5.6 °C 29.6 in /  1001.9 hPa SSW 15 mph /  24.1 km/h 22 mph /  35.4 km/h 82 % 0 in /  0.0 mm
16:27 47.1 °F /  8.4 °C 42.3 °F /  5.7 °C 29.6 in /  1002.3 hPa SSW 19 mph /  30.6 km/h 22 mph /  35.4 km/h 83 % 0 in /  0.0 mm
16:32 46.9 °F /  8.3 °C 42.6 °F /  5.9 °C 29.6 in /  1002.3 hPa South 15 mph /  24.1 km/h 21 mph /  33.8 km/h 85 % 0 in /  0.0 mm
16:37 46.8 °F /  8.2 °C 42.8 °F /  6.0 °C 29.6 in /  1002.3 hPa SSW 17 mph /  27.4 km/h 29 mph /  46.7 km/h 86 % 0 in /  0.0 mm
16:42 46.6 °F /  8.1 °C 43 °F /  6.1 °C 29.6 in /  1002.3 hPa SSW 8 mph /  12.9 km/h 29 mph /  46.7 km/h 87 % 0 in /  0.0 mm
16:47 46.6 °F /  8.1 °C 43 °F /  6.1 °C 29.6 in /  1002.3 hPa SSW 11 mph /  17.7 km/h 29 mph /  46.7 km/h 87 % 0 in /  0.0 mm
16:52 46.6 °F /  8.1 °C 42.6 °F /  5.9 °C 29.6 in /  1002.3 hPa SSW 13 mph /  20.9 km/h 24 mph /  38.6 km/h 86 % 0 in /  0.0 mm
16:57 46.8 °F /  8.2 °C 42.8 °F /  6.0 °C 29.6 in /  1002.3 hPa SSW 7 mph /  11.3 km/h 21 mph /  33.8 km/h 86 % 0 in /  0.0 mm
17:02 46.9 °F /  8.3 °C 43 °F /  6.1 °C 29.6 in /  1002.3 hPa SW 16 mph /  25.7 km/h 21 mph /  33.8 km/h 86 % 0 in /  0.0 mm
17:07 47.1 °F /  8.4 °C 42.8 °F /  6.0 °C 29.6 in /  1002.3 hPa SSW 13 mph /  20.9 km/h 20 mph /  32.2 km/h 85 % 0 in /  0.0 mm
17:12 47.5 °F /  8.6 °C 42.8 °F /  6.0 °C 29.6 in /  1002.3 hPa SW 12 mph /  19.3 km/h 22 mph /  35.4 km/h 84 % 0 in /  0.0 mm
17:17 47.5 °F /  8.6 °C 42.8 °F /  6.0 °C 29.6 in /  1002.6 hPa SW 16 mph /  25.7 km/h 22 mph /  35.4 km/h 84 % 0 in /  0.0 mm
17:22 47.8 °F /  8.8 °C 43.2 °F /  6.2 °C 29.6 in /  1002.3 hPa SW 17 mph /  27.4 km/h 22 mph /  35.4 km/h 84 % 0 in /  0.0 mm
17:27 48.4 °F /  9.1 °C 42.4 °F /  5.8 °C 29.6 in /  1002.6 hPa SW 17 mph /  27.4 km/h 32 mph /  51.5 km/h 80 % 0.01 in /  0.3 mm
17:32 48.6 °F /  9.2 °C 42.3 °F /  5.7 °C 29.6 in /  1002.9 hPa WSW 23 mph /  37.0 km/h 32 mph /  51.5 km/h 79 % 0.01 in /  0.3 mm
17:37 48.4 °F /  9.1 °C 42.4 °F /  5.8 °C 29.6 in /  1002.6 hPa SW 14 mph /  22.5 km/h 32 mph /  51.5 km/h 80 % 0.01 in /  0.3 mm
17:42 48.4 °F /  9.1 °C 42.8 °F /  6.0 °C 29.6 in /  1002.9 hPa SW 13 mph /  20.9 km/h 31 mph /  49.9 km/h 81 % 0.01 in /  0.3 mm
17:47 48 °F /  8.9 °C 42.4 °F /  5.8 °C 29.6 in /  1002.9 hPa SW 21 mph /  33.8 km/h 31 mph /  49.9 km/h 81 % 0.01 in /  0.3 mm
17:52 48 °F /  8.9 °C 42.4 °F /  5.8 °C 29.6 in /  1003.3 hPa SW 15 mph /  24.1 km/h 32 mph /  51.5 km/h 81 % 0.01 in /  0.3 mm
17:57 48 °F /  8.9 °C 42.4 °F /  5.8 °C 29.6 in /  1003.3 hPa SW 21 mph /  33.8 km/h 32 mph /  51.5 km/h 81 % 0.01 in /  0.3 mm
18:02 48 °F /  8.9 °C 42.1 °F /  5.6 °C 29.6 in /  1003.3 hPa SSW 14 mph /  22.5 km/h 26 mph /  41.8 km/h 80 % 0.01 in /  0.3 mm
18:07 48 °F /  8.9 °C 42.1 °F /  5.6 °C 29.6 in /  1003.6 hPa SSW 11 mph /  17.7 km/h 29 mph /  46.7 km/h 80 % 0.01 in /  0.3 mm
18:12 47.8 °F /  8.8 °C 42.3 °F /  5.7 °C 29.6 in /  1003.6 hPa WSW 19 mph /  30.6 km/h 29 mph /  46.7 km/h 81 % 0.01 in /  0.3 mm
18:17 47.5 °F /  8.6 °C 41.9 °F /  5.5 °C 29.6 in /  1003.6 hPa SW 13 mph /  20.9 km/h 27 mph /  43.4 km/h 81 % 0.01 in /  0.3 mm
18:22 47.3 °F /  8.5 °C 42.1 °F /  5.6 °C 29.6 in /  1003.9 hPa SW 13 mph /  20.9 km/h 27 mph /  43.4 km/h 82 % 0.01 in /  0.3 mm
18:27 47.1 °F /  8.4 °C 41.9 °F /  5.5 °C 29.6 in /  1003.9 hPa SSW 16 mph /  25.7 km/h 31 mph /  49.9 km/h 82 % 0 in /  0.0 mm
18:32 47.1 °F /  8.4 °C 41.9 °F /  5.5 °C 29.7 in /  1004.3 hPa SW 20 mph /  32.2 km/h 31 mph /  49.9 km/h 82 % 0 in /  0.0 mm
18:42 46.9 °F /  8.3 °C 41.7 °F /  5.4 °C 29.6 in /  1003.9 hPa SW 13 mph /  20.9 km/h 27 mph /  43.4 km/h 82 % 0 in /  0.0 mm
18:47 46.8 °F /  8.2 °C 41.9 °F /  5.5 °C 29.7 in /  1004.3 hPa SW 15 mph /  24.1 km/h 23 mph /  37.0 km/h 83 % 0 in /  0.0 mm
18:52 46.8 °F /  8.2 °C 42.3 °F /  5.7 °C 29.7 in /  1004.6 hPa SW 11 mph /  17.7 km/h 22 mph /  35.4 km/h 84 % 0 in /  0.0 mm
18:57 46.4 °F /  8.0 °C 42.1 °F /  5.6 °C 29.7 in /  1004.6 hPa WSW 7 mph /  11.3 km/h 28 mph /  45.1 km/h 85 % 0 in /  0.0 mm
19:02 46.2 °F /  7.9 °C 41.9 °F /  5.5 °C 29.7 in /  1004.6 hPa WSW 14 mph /  22.5 km/h 28 mph /  45.1 km/h 85 % 0 in /  0.0 mm
19:07 46.4 °F /  8.0 °C 41.9 °F /  5.5 °C 29.7 in /  1005.0 hPa SW 13 mph /  20.9 km/h 26 mph /  41.8 km/h 84 % 0 in /  0.0 mm
19:12 46.2 °F /  7.9 °C 41.7 °F /  5.4 °C 29.7 in /  1005.0 hPa SW 17 mph /  27.4 km/h 22 mph /  35.4 km/h 84 % 0 in /  0.0 mm
19:17 46.2 °F /  7.9 °C 41.4 °F /  5.2 °C 29.7 in /  1005.0 hPa WSW 16 mph /  25.7 km/h 22 mph /  35.4 km/h 83 % 0 in /  0.0 mm
19:22 46.2 °F /  7.9 °C 41 °F /  5.0 °C 29.7 in /  1005.3 hPa WSW 15 mph /  24.1 km/h 24 mph /  38.6 km/h 82 % 0 in /  0.0 mm
19:27 46 °F /  7.8 °C 40.8 °F /  4.9 °C 29.7 in /  1005.3 hPa WSW 24 mph /  38.6 km/h 24 mph /  38.6 km/h 82 % 0 in /  0.0 mm
19:32 46 °F /  7.8 °C 40.8 °F /  4.9 °C 29.7 in /  1005.6 hPa SW 6 mph /  9.7 km/h 32 mph /  51.5 km/h 82 % 0 in /  0.0 mm
19:37 46 °F /  7.8 °C 40.8 °F /  4.9 °C 29.7 in /  1005.6 hPa SW 12 mph /  19.3 km/h 32 mph /  51.5 km/h 82 % 0 in /  0.0 mm
19:42 46 °F /  7.8 °C 40.8 °F /  4.9 °C 29.7 in /  1005.6 hPa SSW 16 mph /  25.7 km/h 32 mph /  51.5 km/h 82 % 0 in /  0.0 mm
19:47 45.9 °F /  7.7 °C 41 °F /  5.0 °C 29.7 in /  1006.0 hPa SW 6 mph /  9.7 km/h 27 mph /  43.4 km/h 83 % 0 in /  0.0 mm
19:52 45.7 °F /  7.6 °C 40.8 °F /  4.9 °C 29.7 in /  1006.0 hPa SW 10 mph /  16.1 km/h 27 mph /  43.4 km/h 83 % 0 in /  0.0 mm
19:57 45.9 °F /  7.7 °C 40.6 °F /  4.8 °C 29.7 in /  1006.0 hPa SW 14 mph /  22.5 km/h 21 mph /  33.8 km/h 82 % 0.01 in /  0.3 mm
20:02 45.9 °F /  7.7 °C 40.6 °F /  4.8 °C 29.7 in /  1006.3 hPa SSW 12 mph /  19.3 km/h 18 mph /  29.0 km/h 82 % 0.01 in /  0.3 mm
20:07 45.9 °F /  7.7 °C 40.6 °F /  4.8 °C 29.7 in /  1006.3 hPa SW 11 mph /  17.7 km/h 19 mph /  30.6 km/h 82 % 0.01 in /  0.3 mm
20:17 45.9 °F /  7.7 °C 40.6 °F /  4.8 °C 29.7 in /  1006.7 hPa SW 16 mph /  25.7 km/h 19 mph /  30.6 km/h 82 % 0.01 in /  0.3 mm
20:22 45.7 °F /  7.6 °C 40.8 °F /  4.9 °C 29.7 in /  1006.7 hPa SW 17 mph /  27.4 km/h 20 mph /  32.2 km/h 83 % 0.01 in /  0.3 mm
20:27 45.3 °F /  7.4 °C 40.8 °F /  4.9 °C 29.7 in /  1006.7 hPa SW 11 mph /  17.7 km/h 21 mph /  33.8 km/h 84 % 0.01 in /  0.3 mm
20:32 45.1 °F /  7.3 °C 40.6 °F /  4.8 °C 29.7 in /  1006.7 hPa SW 11 mph /  17.7 km/h 21 mph /  33.8 km/h 84 % 0.01 in /  0.3 mm
20:37 45.1 °F /  7.3 °C 40.6 °F /  4.8 °C 29.7 in /  1006.7 hPa SW 14 mph /  22.5 km/h 21 mph /  33.8 km/h 84 % 0.01 in /  0.3 mm
20:42 45.3 °F /  7.4 °C 40.5 °F /  4.7 °C 29.7 in /  1007.0 hPa WSW 15 mph /  24.1 km/h 18 mph /  29.0 km/h 83 % 0.01 in /  0.3 mm
20:47 45.5 °F /  7.5 °C 40.6 °F /  4.8 °C 29.7 in /  1007.0 hPa SW 8 mph /  12.9 km/h 20 mph /  32.2 km/h 83 % 0.01 in /  0.3 mm
20:57 45.3 °F /  7.4 °C 40.8 °F /  4.9 °C 29.7 in /  1007.3 hPa SSW 7 mph /  11.3 km/h 20 mph /  32.2 km/h 84 % 0 in /  0.0 mm
21:02 45 °F /  7.2 °C 40.6 °F /  4.8 °C 29.7 in /  1007.3 hPa SW 5 mph /  8.0 km/h 17 mph /  27.4 km/h 85 % 0 in /  0.0 mm
21:07 44.8 °F /  7.1 °C 40.8 °F /  4.9 °C 29.7 in /  1007.3 hPa SW 11 mph /  17.7 km/h 15 mph /  24.1 km/h 86 % 0 in /  0.0 mm
21:12 44.4 °F /  6.9 °C 40.5 °F /  4.7 °C 29.7 in /  1007.0 hPa SW 11 mph /  17.7 km/h 15 mph /  24.1 km/h 86 % 0 in /  0.0 mm
21:17 44.4 °F /  6.9 °C 40.5 °F /  4.7 °C 29.7 in /  1007.0 hPa South 6 mph /  9.7 km/h 16 mph /  25.7 km/h 86 % 0 in /  0.0 mm
21:22 44.1 °F /  6.7 °C 40.1 °F /  4.5 °C 29.7 in /  1006.7 hPa SW 5 mph /  8.0 km/h 16 mph /  25.7 km/h 86 % 0 in /  0.0 mm
21:27 43.7 °F /  6.5 °C 39.7 °F /  4.3 °C 29.7 in /  1006.7 hPa SW 10 mph /  16.1 km/h 16 mph /  25.7 km/h 86 % 0 in /  0.0 mm
21:32 43.5 °F /  6.4 °C 39.9 °F /  4.4 °C 29.7 in /  1006.7 hPa SW 9 mph /  14.5 km/h 14 mph /  22.5 km/h 87 % 0 in /  0.0 mm
21:37 43.3 °F /  6.3 °C 40.1 °F /  4.5 °C 29.7 in /  1006.7 hPa SSW 7 mph /  11.3 km/h 13 mph /  20.9 km/h 88 % 0 in /  0.0 mm
21:42 43 °F /  6.1 °C 39.7 °F /  4.3 °C 29.7 in /  1006.7 hPa SSW 5 mph /  8.0 km/h 13 mph /  20.9 km/h 88 % 0 in /  0.0 mm
21:47 42.4 °F /  5.8 °C 39.4 °F /  4.1 °C 29.7 in /  1006.7 hPa SSW 3 mph /  4.8 km/h 13 mph /  20.9 km/h 89 % 0 in /  0.0 mm
21:52 42.4 °F /  5.8 °C 39.7 °F /  4.3 °C 29.7 in /  1006.7 hPa SSW 5 mph /  8.0 km/h 10 mph /  16.1 km/h 90 % 0 in /  0.0 mm
21:57 42.6 °F /  5.9 °C 39.6 °F /  4.2 °C 29.7 in /  1006.7 hPa SW 7 mph /  11.3 km/h 8 mph /  12.9 km/h 89 % 0 in /  0.0 mm
22:02 42.6 °F /  5.9 °C 39.6 °F /  4.2 °C 29.7 in /  1006.7 hPa SSW 3 mph /  4.8 km/h 9 mph /  14.5 km/h 89 % 0 in /  0.0 mm
22:07 42.4 °F /  5.8 °C 39.4 °F /  4.1 °C 29.7 in /  1006.7 hPa SSE 3 mph /  4.8 km/h 9 mph /  14.5 km/h 89 % 0 in /  0.0 mm
22:12 42.1 °F /  5.6 °C 39 °F /  3.9 °C 29.7 in /  1006.7 hPa SW 6 mph /  9.7 km/h 9 mph /  14.5 km/h 89 % 0 in /  0.0 mm
22:17 41.9 °F /  5.5 °C 39.2 °F /  4.0 °C 29.7 in /  1006.7 hPa South 9 mph /  14.5 km/h 9 mph /  14.5 km/h 90 % 0 in /  0.0 mm
22:27 41.7 °F /  5.4 °C 39 °F /  3.9 °C 29.7 in /  1006.7 hPa SSW 8 mph /  12.9 km/h 11 mph /  17.7 km/h 90 % 0 in /  0.0 mm
22:32 41.7 °F /  5.4 °C 39 °F /  3.9 °C 29.7 in /  1006.7 hPa SSW 6 mph /  9.7 km/h 11 mph /  17.7 km/h 90 % 0 in /  0.0 mm
22:37 41.5 °F /  5.3 °C 38.8 °F /  3.8 °C 29.7 in /  1006.7 hPa SSW 5 mph /  8.0 km/h 11 mph /  17.7 km/h 90 % 0 in /  0.0 mm
22:42 41.5 °F /  5.3 °C 38.8 °F /  3.8 °C 29.7 in /  1006.7 hPa SSW 9 mph /  14.5 km/h 11 mph /  17.7 km/h 90 % 0 in /  0.0 mm
22:47 41.5 °F /  5.3 °C 38.8 °F /  3.8 °C 29.7 in /  1006.7 hPa SSW 7 mph /  11.3 km/h 11 mph /  17.7 km/h 90 % 0 in /  0.0 mm
22:52 41.4 °F /  5.2 °C 38.7 °F /  3.7 °C 29.7 in /  1006.7 hPa SW 8 mph /  12.9 km/h 11 mph /  17.7 km/h 90 % 0 in /  0.0 mm
22:57 41.5 °F /  5.3 °C 38.8 °F /  3.8 °C 29.7 in /  1006.7 hPa SSW 7 mph /  11.3 km/h 14 mph /  22.5 km/h 90 % 0 in /  0.0 mm
23:02 41.4 °F /  5.2 °C 38.7 °F /  3.7 °C 29.7 in /  1006.3 hPa SW 7 mph /  11.3 km/h 14 mph /  22.5 km/h 90 % 0 in /  0.0 mm
23:07 41.4 °F /  5.2 °C 39 °F /  3.9 °C 29.7 in /  1006.3 hPa SSW 7 mph /  11.3 km/h 14 mph /  22.5 km/h 91 % 0 in /  0.0 mm
23:12 41.4 °F /  5.2 °C 38.7 °F /  3.7 °C 29.7 in /  1006.3 hPa SSW 8 mph /  12.9 km/h 11 mph /  17.7 km/h 90 % 0 in /  0.0 mm
23:17 41.5 °F /  5.3 °C 38.5 °F /  3.6 °C 29.7 in /  1006.3 hPa SSW 7 mph /  11.3 km/h 11 mph /  17.7 km/h 89 % 0 in /  0.0 mm
23:22 41.7 °F /  5.4 °C 38.7 °F /  3.7 °C 29.7 in /  1006.7 hPa SSW 6 mph /  9.7 km/h 14 mph /  22.5 km/h 89 % 0 in /  0.0 mm
23:27 41.5 °F /  5.3 °C 38.5 °F /  3.6 °C 29.7 in /  1006.7 hPa South 8 mph /  12.9 km/h 14 mph /  22.5 km/h 89 % 0 in /  0.0 mm
23:32 41.4 °F /  5.2 °C 38.3 °F /  3.5 °C 29.7 in /  1006.7 hPa SSW 6 mph /  9.7 km/h 13 mph /  20.9 km/h 89 % 0 in /  0.0 mm
23:37 41.4 °F /  5.2 °C 38.3 °F /  3.5 °C 29.7 in /  1006.3 hPa South 8 mph /  12.9 km/h 11 mph /  17.7 km/h 89 % 0 in /  0.0 mm
23:42 41.4 °F /  5.2 °C 38.3 °F /  3.5 °C 29.7 in /  1006.3 hPa South 6 mph /  9.7 km/h 11 mph /  17.7 km/h 89 % 0 in /  0.0 mm
23:47 41.2 °F /  5.1 °C 38.1 °F /  3.4 °C 29.7 in /  1006.3 hPa SSE 2 mph /  3.2 km/h 11 mph /  17.7 km/h 89 % 0 in /  0.0 mm
23:52 41.2 °F /  5.1 °C 38.1 °F /  3.4 °C 29.7 in /  1006.3 hPa South 3 mph /  4.8 km/h 11 mph /  17.7 km/h 89 % 0 in /  0.0 mm
23:57 40.8 °F /  4.9 °C 37.8 °F /  3.2 °C 29.7 in /  1006.3 hPa South 3 mph /  4.8 km/h 8 mph /  12.9 km/h 89 % 0 in /  0.0 mm
Meteo18
Compliments of Weather Underground - 4 mb

Script developed by  Jim McMurry - jmcmurry@mwt.net Adapted for the template by  Wim van der Kuil - Leuven-Template.eu

You find our weather info also at:

European Weather Network

Weather Underground

Equipment we use:

Weather-station
Davis Vue

Weather-program
Meteohub

Weather-server
Raspberry PI 2 B+

Provider
1 and 1

Davis Vue

Meteohub

Raspberry PI 2 B+

1 and 1